Terminal Aerodrome Forecast
Issued by NWS Riverton, WY

Home | Current Version | Previous Version | Text Only | Print | Product List | Glossary On
Versions: 1 2 3 4 5 6 7 8 9 10 11 12
000
FTUS45 KRIW 281700
TAFRIW
TAF
KRIW 281721Z 2818/2918 08008KT P6SM SCT120 BKN200
     FM282300 VRB10G20KT P6SM VCTS SCT090CB BKN140
     FM290300 VRB06KT P6SM VCSH SCT080 BKN120
     FM291300 01012KT P6SM VCSH SCT050 BKN060=

USA.gov is the U.S. government's official web portal to all federal, state and local government web resources and services.